createdAt,value
2018-09-17T00:01:34.817Z,5.93
2018-09-17T00:04:15.694Z,5.97
2018-09-17T00:06:56.495Z,6.03
2018-09-17T00:09:37.287Z,6.33
2018-09-17T00:12:18.221Z,6.53
2018-09-17T00:14:59.381Z,6.47
2018-09-17T00:17:40.392Z,6.58
2018-09-17T00:20:21.661Z,6.22
2018-09-17T00:23:02.870Z,6.47
2018-09-17T00:25:44.253Z,6.20
2018-09-17T00:28:25.101Z,6.30
2018-09-17T00:31:06.807Z,6.47
2018-09-17T00:33:47.782Z,6.60
2018-09-17T00:36:28.294Z,6.07
2018-09-17T00:39:10.832Z,6.40
2018-09-17T00:41:52.013Z,5.87
2018-09-17T00:44:32.462Z,6.13
2018-09-17T00:47:13.542Z,5.87
2018-09-17T00:49:54.824Z,6.03
2018-09-17T00:52:35.440Z,5.87
2018-09-17T00:55:15.908Z,5.60
2018-09-17T00:57:56.817Z,5.77
2018-09-17T01:00:38.205Z,5.70
2018-09-17T01:03:19.297Z,5.58
2018-09-17T01:06:00.427Z,6.35
2018-09-17T01:08:41.486Z,5.97
2018-09-17T01:11:22.982Z,5.87
2018-09-17T01:14:04.433Z,6.15
2018-09-17T01:16:45.100Z,6.17
2018-09-17T01:19:26.668Z,5.67
2018-09-17T01:22:07.922Z,6.12
2018-09-17T01:24:49.477Z,6.45
2018-09-17T01:27:30.025Z,6.23
2018-09-17T01:30:11.474Z,5.77
2018-09-17T01:32:52.370Z,5.70
2018-09-17T01:35:33.519Z,5.83
2018-09-17T01:38:14.593Z,5.87
2018-09-17T01:40:55.493Z,6.07
2018-09-17T01:43:35.969Z,6.13
2018-09-17T01:46:17.179Z,5.77
2018-09-17T01:48:57.912Z,5.90
2018-09-17T01:51:38.794Z,6.08
2018-09-17T01:54:20.291Z,5.73
2018-09-17T01:57:01.898Z,6.35
2018-09-17T01:59:42.775Z,6.00
2018-09-17T02:02:23.857Z,6.35
2018-09-17T02:05:04.723Z,6.55
2018-09-17T02:07:45.555Z,7.22
2018-09-17T02:10:26.766Z,6.75
2018-09-17T02:13:07.750Z,6.85
2018-09-17T02:15:49.211Z,6.90
2018-09-17T02:18:30.614Z,6.40
2018-09-17T02:21:12.204Z,6.78
2018-09-17T02:23:53.029Z,6.95
2018-09-17T02:26:34.109Z,6.67
2018-09-17T02:29:15.480Z,6.17
2018-09-17T02:31:57.381Z,7.10
2018-09-17T02:34:38.553Z,7.05
2018-09-17T02:37:19.566Z,6.90
2018-09-17T02:40:00.604Z,6.78
2018-09-17T02:42:42.256Z,7.70
2018-09-17T02:45:23.089Z,7.37
2018-09-17T02:48:04.020Z,7.42
2018-09-17T02:50:44.805Z,7.67
2018-09-17T02:53:25.610Z,7.22
2018-09-17T02:56:06.588Z,7.78
2018-09-17T02:58:47.389Z,6.83
2018-09-17T03:01:29.457Z,6.80
2018-09-17T03:04:10.227Z,7.30
2018-09-17T03:06:51.522Z,7.00
2018-09-17T03:09:33.109Z,6.58
2018-09-17T03:12:13.989Z,6.65
2018-09-17T03:14:55.498Z,7.15
2018-09-17T03:17:36.307Z,8.00
2018-09-17T03:20:17.933Z,7.62
2018-09-17T03:22:58.796Z,7.53
2018-09-17T03:25:39.549Z,7.75
2018-09-17T03:28:21.524Z,7.25
2018-09-17T03:31:02.829Z,7.30
2018-09-17T03:33:43.969Z,7.33
2018-09-17T03:36:25.496Z,7.33
2018-09-17T03:39:07.529Z,7.83
2018-09-17T03:41:48.366Z,7.80
2018-09-17T03:44:29.389Z,7.10
2018-09-17T03:47:10.247Z,7.53
2018-09-17T03:49:51.566Z,8.05
2018-09-17T03:52:32.385Z,7.70
2018-09-17T03:55:13.097Z,7.95
2018-09-17T03:57:53.988Z,7.30
2018-09-17T04:00:35.756Z,7.85
2018-09-17T04:03:17.487Z,7.05
2018-09-17T04:05:59.099Z,7.80
2018-09-17T04:08:41.375Z,7.80
2018-09-17T04:11:22.598Z,7.42
2018-09-17T04:14:03.763Z,8.20
2018-09-17T04:16:44.852Z,7.53
2018-09-17T04:19:25.647Z,7.70
2018-09-17T04:22:06.969Z,7.72
2018-09-17T04:24:48.409Z,8.65
2018-09-17T04:27:29.148Z,8.40
2018-09-17T04:30:09.957Z,8.88
2018-09-17T04:32:51.778Z,8.05
2018-09-17T04:35:33.064Z,8.73
2018-09-17T04:38:14.300Z,7.67
2018-09-17T04:40:55.916Z,8.38
2018-09-17T04:43:37.317Z,8.28
2018-09-17T04:46:18.483Z,8.03
2018-09-17T04:48:59.609Z,7.28
2018-09-17T04:51:40.665Z,7.42
2018-09-17T04:54:21.503Z,8.73
2018-09-17T04:57:02.202Z,7.75
2018-09-17T04:59:43.803Z,8.53
2018-09-17T05:02:24.859Z,7.83
2018-09-17T05:05:06.306Z,8.00
2018-09-17T05:07:47.216Z,8.48
2018-09-17T05:10:28.125Z,8.93
2018-09-17T05:13:09.279Z,7.30
2018-09-17T05:15:50.125Z,6.90
2018-09-17T05:18:30.945Z,6.60
2018-09-17T05:21:11.879Z,7.50
2018-09-17T05:23:52.718Z,6.55
2018-09-17T05:26:33.649Z,7.35
2018-09-17T05:29:14.698Z,6.85
2018-09-17T05:31:56.364Z,6.85
2018-09-17T05:34:37.432Z,7.17
2018-09-17T05:37:18.236Z,7.83
2018-09-17T05:39:58.966Z,7.42
2018-09-17T05:42:39.875Z,7.42
2018-09-17T05:45:20.643Z,6.95
2018-09-17T05:48:01.593Z,7.20
2018-09-17T05:50:42.351Z,7.70
2018-09-17T05:53:23.630Z,7.95
2018-09-17T05:56:05.637Z,7.50
2018-09-17T05:58:46.557Z,7.37
2018-09-17T06:01:27.106Z,7.97
2018-09-17T06:04:08.390Z,8.18
2018-09-17T06:06:49.798Z,8.55
2018-09-17T06:09:30.973Z,8.10
2018-09-17T06:12:12.640Z,7.43
2018-09-17T06:14:53.207Z,7.60
2018-09-17T06:17:34.292Z,8.00
2018-09-17T06:20:15.522Z,8.13
2018-09-17T06:22:56.315Z,7.72
2018-09-17T06:25:36.754Z,7.50
2018-09-17T06:28:17.265Z,7.87
2018-09-17T06:30:58.385Z,7.40
2018-09-17T06:33:38.960Z,7.70
2018-09-17T06:36:19.610Z,8.47
2018-09-17T06:39:00.217Z,7.27
2018-09-17T06:41:41.014Z,8.07
2018-09-17T06:44:22.521Z,7.03
2018-09-17T06:47:03.040Z,6.97
2018-09-17T06:49:43.851Z,7.00
2018-09-17T06:52:24.848Z,7.33
2018-09-17T06:55:05.852Z,7.10
2018-09-17T06:57:46.869Z,7.13
2018-09-17T07:00:27.441Z,6.80
2018-09-17T07:03:07.943Z,6.13
2018-09-17T07:05:49.490Z,6.67
2018-09-17T07:08:30.058Z,6.27
2018-09-17T07:11:11.166Z,6.57
2018-09-17T07:13:52.775Z,6.00
2018-09-17T07:16:34.665Z,5.67
2018-09-17T07:19:15.624Z,6.13
2018-09-17T07:21:56.838Z,6.03
2018-09-17T07:24:37.709Z,6.77
2018-09-17T07:27:19.748Z,6.17
2018-09-17T07:30:01.053Z,5.57
2018-09-17T07:32:42.502Z,5.80
2018-09-17T07:35:23.330Z,4.80
2018-09-17T07:38:03.850Z,5.23
2018-09-17T07:40:45.433Z,4.97
2018-09-17T07:43:26.695Z,4.60
2018-09-17T07:46:07.709Z,4.60
2018-09-17T07:48:48.610Z,4.70
2018-09-17T07:51:29.333Z,4.40
2018-09-17T07:54:10.151Z,4.53
2018-09-17T07:56:50.940Z,4.00
2018-09-17T07:59:31.701Z,4.23
2018-09-17T08:02:12.806Z,4.00
2018-09-17T08:04:53.288Z,4.50
2018-09-17T08:07:34.374Z,4.43
2018-09-17T08:10:18.965Z,4.33
2018-09-17T08:13:00.173Z,4.83
2018-09-17T08:15:40.853Z,3.97
2018-09-17T08:18:22.120Z,4.10
2018-09-17T08:21:03.720Z,4.30
2018-09-17T08:23:45.298Z,3.83
2018-09-17T08:26:27.226Z,3.67
2018-09-17T08:29:08.473Z,4.30
2018-09-17T08:31:49.209Z,4.07
2018-09-17T08:34:31.144Z,4.43
2018-09-17T08:37:11.669Z,4.50
2018-09-17T08:39:52.507Z,4.00
2018-09-17T08:42:33.324Z,4.53
2018-09-17T08:45:14.501Z,4.30
2018-09-17T08:47:55.724Z,4.57
2018-09-17T08:50:36.617Z,3.87
2018-09-17T08:53:17.026Z,3.87
2018-09-17T08:56:04.447Z,3.60
2018-09-17T08:58:50.625Z,4.10
2018-09-17T09:01:37.801Z,4.13
2018-09-17T09:04:23.554Z,3.63
2018-09-17T09:07:11.188Z,3.67
2018-09-17T09:09:53.916Z,3.63
2018-09-17T09:12:39.536Z,3.47
2018-09-17T09:15:23.074Z,3.80
2018-09-17T09:18:05.444Z,3.50
2018-09-17T09:20:46.670Z,3.80
2018-09-17T09:23:27.998Z,4.17
2018-09-17T09:26:08.955Z,4.00
2018-09-17T09:28:49.645Z,3.80
2018-09-17T09:31:30.080Z,3.50
2018-09-17T09:34:10.960Z,4.10
2018-09-17T09:36:53.313Z,3.53
2018-09-17T09:39:34.373Z,3.50
2018-09-17T09:42:15.081Z,3.60
2018-09-17T09:44:55.689Z,3.60
2018-09-17T09:47:36.291Z,3.80
2018-09-17T09:50:17.154Z,3.53
2018-09-17T09:52:58.225Z,3.20
2018-09-17T09:55:38.940Z,4.10
2018-09-17T09:58:20.417Z,2.90
2018-09-17T10:01:06.517Z,2.97
2018-09-17T10:03:51.384Z,2.87
2018-09-17T10:06:31.965Z,2.73
2018-09-17T10:09:18.010Z,2.90
2018-09-17T10:12:04.025Z,2.93
2018-09-17T10:14:50.328Z,2.87
2018-09-17T10:17:37.244Z,2.80
2018-09-17T10:20:18.524Z,2.93
2018-09-17T10:22:59.301Z,2.70
2018-09-17T10:25:39.863Z,2.80
2018-09-17T10:28:20.453Z,2.73
2018-09-17T10:31:01.380Z,2.80
2018-09-17T10:33:42.568Z,2.67
2018-09-17T10:36:23.186Z,2.83
2018-09-17T10:39:04.291Z,2.33
2018-09-17T10:41:45.347Z,2.67
2018-09-17T10:44:26.567Z,2.60
2018-09-17T10:47:07.339Z,2.77
2018-09-17T10:49:47.817Z,2.57
2018-09-17T10:52:28.787Z,2.80
2018-09-17T10:55:10.416Z,2.43
2018-09-17T10:57:52.073Z,2.40
2018-09-17T11:00:32.566Z,2.37
2018-09-17T11:03:13.135Z,2.43
2018-09-17T11:05:54.144Z,2.60
2018-09-17T11:08:38.225Z,2.47
2018-09-17T11:11:22.969Z,2.30
2018-09-17T11:14:04.176Z,2.73
2018-09-17T11:16:45.127Z,2.67
2018-09-17T11:19:25.989Z,2.83
2018-09-17T11:22:07.322Z,2.50
2018-09-17T11:24:47.903Z,2.60
2018-09-17T11:27:29.165Z,2.80
2018-09-17T11:30:10.390Z,3.10
2018-09-17T11:32:53.016Z,2.80
2018-09-17T11:35:33.859Z,2.73
2018-09-17T11:38:15.674Z,2.90
2018-09-17T11:40:56.253Z,2.70
2018-09-17T11:43:36.778Z,2.87
2018-09-17T11:46:17.481Z,2.90
2018-09-17T11:48:58.488Z,2.40
2018-09-17T11:51:41.369Z,2.70
2018-09-17T11:54:22.149Z,2.63
2018-09-17T11:57:03.372Z,2.80
2018-09-17T11:59:44.090Z,2.73
2018-09-17T12:02:29.882Z,2.70
2018-09-17T12:05:16.381Z,2.47
2018-09-17T12:07:58.105Z,2.60
2018-09-17T12:10:38.793Z,2.17
2018-09-17T12:13:20.349Z,2.43
2018-09-17T12:16:01.933Z,2.50
2018-09-17T12:18:43.548Z,2.83
2018-09-17T12:21:24.800Z,2.60
2018-09-17T12:24:05.789Z,2.53
2018-09-17T12:26:47.698Z,2.43
2018-09-17T12:29:28.181Z,2.13
2018-09-17T12:32:09.015Z,2.40
2018-09-17T12:34:49.920Z,2.60
2018-09-17T12:37:30.740Z,2.30
2018-09-17T12:40:11.893Z,2.43
2018-09-17T12:42:53.515Z,2.80
2018-09-17T12:45:38.454Z,2.73
2018-09-17T12:48:19.109Z,2.73
2018-09-17T12:50:59.908Z,2.33
2018-09-17T12:53:41.037Z,2.53
2018-09-17T12:56:22.031Z,2.80
2018-09-17T12:59:03.008Z,4.70
2018-09-17T13:01:45.206Z,3.27
2018-09-17T13:04:25.837Z,2.93
2018-09-17T13:07:08.496Z,2.63
2018-09-17T13:09:50.743Z,2.80
2018-09-17T13:12:31.971Z,2.97
2018-09-17T13:15:16.163Z,2.80
2018-09-17T13:17:57.288Z,2.97
2018-09-17T13:20:38.570Z,3.13
2018-09-17T13:23:20.120Z,2.90
2018-09-17T13:26:01.241Z,2.80
2018-09-17T13:28:42.183Z,3.33
2018-09-17T13:31:23.052Z,3.20
2018-09-17T13:34:04.950Z,2.90
2018-09-17T13:36:45.559Z,2.90
2018-09-17T13:39:26.257Z,3.97
2018-09-17T13:42:08.644Z,3.00
2018-09-17T13:44:51.136Z,3.10
2018-09-17T13:47:32.572Z,3.07
2018-09-17T13:50:20.043Z,2.87
2018-09-17T13:53:00.977Z,2.90
2018-09-17T13:55:41.783Z,3.10
2018-09-17T13:58:22.496Z,3.50
2018-09-17T14:01:03.887Z,3.70
2018-09-17T14:03:44.543Z,3.10
2018-09-17T14:06:25.434Z,3.70
2018-09-17T14:09:10.014Z,3.17
2018-09-17T14:11:51.409Z,3.17
2018-09-17T14:14:32.505Z,3.27
2018-09-17T14:17:16.571Z,3.03
2018-09-17T14:19:57.292Z,3.50
2018-09-17T14:22:38.067Z,3.20
2018-09-17T14:25:18.601Z,3.53
2018-09-17T14:27:59.767Z,3.30
2018-09-17T14:30:40.449Z,3.50
2018-09-17T14:33:26.356Z,3.20
2018-09-17T14:36:07.294Z,3.23
2018-09-17T14:38:47.968Z,3.40
2018-09-17T14:41:29.514Z,3.63
2018-09-17T14:44:10.814Z,3.50
2018-09-17T14:46:52.417Z,3.70
2018-09-17T14:49:33.057Z,3.20
2018-09-17T14:52:13.737Z,3.57
2018-09-17T14:54:54.579Z,3.70
2018-09-17T14:57:35.172Z,3.53
2018-09-17T15:00:16.283Z,3.97
2018-09-17T15:02:56.784Z,3.60
2018-09-17T15:05:37.275Z,3.53
2018-09-17T15:08:18.278Z,4.27
2018-09-17T15:10:59.566Z,3.67
2018-09-17T15:13:40.940Z,3.37
2018-09-17T15:16:22.207Z,3.70
2018-09-17T15:19:04.249Z,3.37
2018-09-17T15:21:45.647Z,3.43
2018-09-17T15:24:26.164Z,3.97
2018-09-17T15:27:07.492Z,3.80
2018-09-17T15:29:47.973Z,3.60
2018-09-17T15:32:28.721Z,3.73
2018-09-17T15:35:09.650Z,3.40
2018-09-17T15:37:51.223Z,3.60
2018-09-17T15:40:32.286Z,3.50
2018-09-17T15:43:13.173Z,4.27
2018-09-17T15:45:53.764Z,4.07
2018-09-17T15:48:35.084Z,4.00
2018-09-17T15:51:16.649Z,3.73
2018-09-17T15:53:59.921Z,3.83
2018-09-17T15:56:40.688Z,4.13
2018-09-17T15:59:21.603Z,4.13
2018-09-17T16:02:02.112Z,4.40
2018-09-17T16:04:42.732Z,4.40
2018-09-17T16:07:23.989Z,4.03
2018-09-17T16:10:05.017Z,4.87
2018-09-17T16:12:45.957Z,4.80
2018-09-17T16:15:26.806Z,4.70
2018-09-17T16:18:07.773Z,4.67
2018-09-17T16:20:49.226Z,5.03
2018-09-17T16:23:29.681Z,4.50
2018-09-17T16:26:10.497Z,4.87
2018-09-17T16:28:52.666Z,4.97
2018-09-17T16:31:36.603Z,4.97
2018-09-17T16:34:17.288Z,4.73
2018-09-17T16:36:58.360Z,4.83
2018-09-17T16:39:39.393Z,4.23
2018-09-17T16:42:20.841Z,3.97
2018-09-17T16:45:02.366Z,3.80
2018-09-17T16:47:45.040Z,4.03
2018-09-17T16:50:25.835Z,4.20
2018-09-17T16:53:06.964Z,4.20
2018-09-17T16:55:48.308Z,4.97
2018-09-17T16:58:29.235Z,5.10
2018-09-17T17:01:10.143Z,4.50
2018-09-17T17:03:52.384Z,4.60
2018-09-17T17:06:33.258Z,4.50
2018-09-17T17:09:14.045Z,4.77
2018-09-17T17:11:55.784Z,4.20
2018-09-17T17:14:36.728Z,5.00
2018-09-17T17:17:18.109Z,4.83
2018-09-17T17:19:58.726Z,4.73
2018-09-17T17:22:39.402Z,4.73
2018-09-17T17:25:20.790Z,4.80
2018-09-17T17:28:02.389Z,5.53
2018-09-17T17:30:44.256Z,6.93
2018-09-17T17:33:25.313Z,6.07
2018-09-17T17:36:07.275Z,5.60
2018-09-17T17:38:48.112Z,6.07
2018-09-17T17:41:28.756Z,6.00
2018-09-17T17:44:10.291Z,6.07
2018-09-17T17:46:51.381Z,6.63
2018-09-17T17:49:32.097Z,6.13
2018-09-17T17:52:13.072Z,6.27
2018-09-17T17:54:54.185Z,6.90
2018-09-17T17:57:35.021Z,6.27
2018-09-17T18:00:16.405Z,5.87
2018-09-17T18:02:57.506Z,5.90
2018-09-17T18:05:38.580Z,5.87
2018-09-17T18:08:19.501Z,5.20
2018-09-17T18:11:00.136Z,5.50
2018-09-17T18:13:41.153Z,5.33
2018-09-17T18:16:26.214Z,6.13
2018-09-17T18:19:07.335Z,5.60
2018-09-17T18:21:48.242Z,5.83
2018-09-17T18:24:29.115Z,5.70
2018-09-17T18:27:09.887Z,5.50
2018-09-17T18:29:50.479Z,5.60
2018-09-17T18:32:30.992Z,5.23
2018-09-17T18:35:11.519Z,5.33
2018-09-17T18:37:52.353Z,6.00
2018-09-17T18:40:33.359Z,5.77
2018-09-17T18:43:14.262Z,6.07
2018-09-17T18:45:55.296Z,5.93
2018-09-17T18:48:36.020Z,5.93
2018-09-17T18:51:18.740Z,5.77
2018-09-17T18:53:59.565Z,6.30
2018-09-17T18:56:41.097Z,6.47
2018-09-17T18:59:22.164Z,6.30
2018-09-17T19:02:03.633Z,6.63
2018-09-17T19:04:44.524Z,7.13
2018-09-17T19:07:25.695Z,7.00
2018-09-17T19:10:06.865Z,6.77
2018-09-17T19:12:48.355Z,7.30
2018-09-17T19:15:34.971Z,7.10
2018-09-17T19:18:17.854Z,6.77
2018-09-17T19:20:59.105Z,6.17
2018-09-17T19:23:44.812Z,7.00
2018-09-17T19:26:25.791Z,6.77
2018-09-17T19:29:12.125Z,5.90
2018-09-17T19:31:53.317Z,6.20
2018-09-17T19:34:34.509Z,5.87
2018-09-17T19:37:20.852Z,6.83
2018-09-17T19:40:07.513Z,6.40
2018-09-17T19:42:49.077Z,6.70
2018-09-17T19:45:35.216Z,6.70
2018-09-17T19:48:15.747Z,6.60
2018-09-17T19:51:01.882Z,6.63
2018-09-17T19:53:42.755Z,5.87
2018-09-17T19:56:23.873Z,6.80
2018-09-17T19:59:09.857Z,5.80
2018-09-17T20:01:50.422Z,6.60
2018-09-17T20:04:36.626Z,6.33
2018-09-17T20:07:17.522Z,6.30
2018-09-17T20:09:59.321Z,6.17
2018-09-17T20:12:42.109Z,7.23
2018-09-17T20:15:23.687Z,6.40
2018-09-17T20:18:04.931Z,6.80
2018-09-17T20:20:46.247Z,7.67
2018-09-17T20:23:27.684Z,7.13
2018-09-17T20:26:08.695Z,6.13
2018-09-17T20:28:49.608Z,7.50
2018-09-17T20:31:31.328Z,7.10
2018-09-17T20:34:11.998Z,7.13
2018-09-17T20:36:52.908Z,7.70
2018-09-17T20:39:33.903Z,7.47
2018-09-17T20:42:14.547Z,7.63
2018-09-17T20:44:56.123Z,7.63
2018-09-17T20:47:36.908Z,7.47
2018-09-17T20:50:18.029Z,8.40
2018-09-17T20:52:58.692Z,8.40
2018-09-17T20:55:39.273Z,8.73
2018-09-17T20:58:20.358Z,8.27
2018-09-17T21:01:01.602Z,8.53
2018-09-17T21:03:42.274Z,9.10
2018-09-17T21:06:25.468Z,8.43
2018-09-17T21:09:10.493Z,9.20
2018-09-17T21:11:52.234Z,8.07
2018-09-17T21:14:32.797Z,8.87
2018-09-17T21:17:13.150Z,9.47
2018-09-17T21:19:54.823Z,8.80
2018-09-17T21:22:35.260Z,8.43
2018-09-17T21:25:16.006Z,8.53
2018-09-17T21:27:57.107Z,8.80
2018-09-17T21:30:38.065Z,8.10
2018-09-17T21:33:18.753Z,7.93
2018-09-17T21:35:59.338Z,7.43
2018-09-17T21:38:40.568Z,6.97
2018-09-17T21:41:21.408Z,7.60
2018-09-17T21:44:01.947Z,7.53
2018-09-17T21:46:43.046Z,8.13
2018-09-17T21:49:23.603Z,7.43
2018-09-17T21:52:04.222Z,8.10
2018-09-17T21:54:44.766Z,8.33
2018-09-17T21:57:25.780Z,7.93
2018-09-17T22:00:06.689Z,7.43
2018-09-17T22:02:47.225Z,7.90
2018-09-17T22:05:28.292Z,8.20
2018-09-17T22:08:09.341Z,7.67
2018-09-17T22:10:50.212Z,7.83
2018-09-17T22:13:30.947Z,8.13
2018-09-17T22:16:12.029Z,7.63
2018-09-17T22:18:52.792Z,8.13
2018-09-17T22:21:33.685Z,8.17
2018-09-17T22:24:14.598Z,7.47
2018-09-17T22:26:55.166Z,7.90
2018-09-17T22:29:36.194Z,7.20
2018-09-17T22:32:16.919Z,7.57
2018-09-17T22:34:59.164Z,7.73
2018-09-17T22:37:40.531Z,8.07
2018-09-17T22:40:21.268Z,8.00
2018-09-17T22:43:02.332Z,8.50
2018-09-17T22:45:43.485Z,8.60
2018-09-17T22:48:24.245Z,8.43
2018-09-17T22:51:04.888Z,8.10
2018-09-17T22:53:45.463Z,8.10
2018-09-17T22:56:26.627Z,8.33
2018-09-17T22:59:07.553Z,8.30
2018-09-17T23:01:48.294Z,8.37
2018-09-17T23:04:29.540Z,8.50
2018-09-17T23:07:10.309Z,7.80
2018-09-17T23:09:50.775Z,8.50
2018-09-17T23:12:31.847Z,8.20
2018-09-17T23:15:12.914Z,8.00
2018-09-17T23:17:54.366Z,8.47
2018-09-17T23:20:35.354Z,8.30
2018-09-17T23:23:16.572Z,8.67
2018-09-17T23:25:57.131Z,8.23
2018-09-17T23:28:38.056Z,8.43
2018-09-17T23:31:18.803Z,8.93
2018-09-17T23:33:59.542Z,9.07
2018-09-17T23:36:40.151Z,9.80
2018-09-17T23:39:21.056Z,9.50
2018-09-17T23:42:01.577Z,9.63
2018-09-17T23:44:42.067Z,9.77
2018-09-17T23:47:22.573Z,9.73
2018-09-17T23:50:03.791Z,9.50
2018-09-17T23:52:44.621Z,9.73
2018-09-17T23:55:25.288Z,10.10
2018-09-17T23:58:06.321Z,9.70
